Airfield :
LOGIN :

Register | Disclaimer

   EN    FR    IT 

 










Legend :    VFR   Marginal VFR   IFR   Intensive IFR   Very Intensive IFR
Visi :
Ceiling :
>= 8 km
>= 3000ft
5 to 8 km
1000 to 3000 ft
1500m to 5 km
500 to 1000 ft
800 to 1500m
200 to 500 ft
< 800m
< 200 ft
Symbols :   Thunderstorms  Fog  Heavy snow  Heavy precipitations  Wind > 20 kt
SIGMETs :     Misc.  Thunderstorms  Icing  Turbulence  Mountain Waves  Volcanic Ashes







- Airport Elevation : 392 ft
- IATA code : CDG
- Download approach charts


LFPG - Paris-Aeroport Charles De Gaulle

CURRENT METAR :
  • 251930Z 36012KT 290V040 9999 SCT049 08/01 Q1031 NOSIG

EXPIRED METARs :
  • 251900Z 35011KT 310V090 9999 BKN035 08/01 Q1031 NOSIG
  • 251830Z 36012KT CAVOK 08/00 Q1031 NOSIG
  • 251800Z 01016KT CAVOK 09/M00 Q1030 NOSIG
  • 251730Z 02017KT 9999 SCT046 10/M00 Q1030 NOSIG
  • 251700Z 01017KT CAVOK 10/M01 Q1030 NOSIG

TAF TAF LFPG
Valid from the 25 at 18:00 until the 27 at 00:00 UTC


251700Z 2518/2624 36010KT CAVOK TX12/2612Z TN02/2605Z
TEMPO 2603/2609 BKN009
PROB40
TEMPO 2603/2606 BKN004
ATIS : +33 1 48 62 10 92
No reported NOTAMs for that airfield.



MET'MAP, your aeronautical weather chart ! - Copyright ORBIFLY December 2007 - Disclaimer

ORBIFLY MET'MAP TEAM :

Programming & Development : Alexandra Zaïnal
Concept & Development : Baudouin d'Aumeries
Co-Development & Prog : Marc-Olivier Méhu
Technical & hardware support : Manuel Goepfert

Contact : metmap@orbifly.com




SOURCES & CREDITS :

   NOAA